Marco Polo — C6JZ7 — position and weather

sailwx.info

Track history (hours):
 
Tides and Currents Weather Stations Pressure Air Temp Water Temp Dewpoint Dewpoint Depression Visibility Wind Speed Wind Dir Waves Ship Positions

Marco Polo

Operator: Orient Lines

Last reported at 2017-May-25 03:00 UTC. Time now 2017-May-25 02:58 UTC.
Position N 50°07' W 006°01'.

Type: Ship. MMSI: 308691456.

Date/timePositionNaut miles runAvg speedWind from/ knotsBaromVisibWave heightAir tempDewpointWater temp
2017-May-25 03:00N 50°07' W 006°01'1312.5
2017-May-25 01:56N 50°20' W 005°60'512.3
2017-May-25 01:30N 50°24' W 005°55'713.1
2017-May-25 01:00N 50°29' W 005°48'713.5
2017-May-25 00:30N 50°34' W 005°40'713.9
2017-May-25 00:00N 50°37' W 005°31'714.4
2017-May-24 23:30N 50°42' W 005°22'714.7
2017-May-24 23:00N 50°47' W 005°13'715.0
2017-May-24 22:30N 50°51' W 005°04'815.2
2017-May-24 22:00N 50°56' W 004°55'815.4
2017-May-24 21:30N 51°01' W 004°46'816.2
2017-May-24 21:00N 51°07' W 004°36'816.4
2017-May-24 20:30N 51°12' W 004°26'816.1
2017-May-24 20:00N 51°16' W 004°15'1017.6
2017-May-24 19:26N 51°18' W 003°59'816.8
2017-May-24 18:57N 51°19' W 003°46'716.0
2017-May-24 18:30N 51°20' W 003°35'814.8
2017-May-24 17:56N 51°21' W 003°21'812.2
2017-May-24 17:16N 51°24' W 003°09'311.4
2017-May-24 17:00N 51°27' W 003°10'1 0.3
2017-May-24 14:45N 51°27' W 003°09'0 0.0
2017-May-24 14:27N 51°27' W 003°09'0 0.0
2017-May-24 13:27N 51°27' W 003°09'0 0.0
2017-May-24 12:57N 51°27' W 003°09'0 0.0
2017-May-24 12:27N 51°27' W 003°09'0 0.0
2017-May-24 11:57N 51°27' W 003°09'0 0.0
2017-May-24 11:27N 51°27' W 003°09'0 0.0
2017-May-24 10:57N 51°27' W 003°09'0 0.0
2017-May-24 10:27N 51°27' W 003°09'0 0.0
2017-May-24 09:57N 51°27' W 003°09'0 0.0
2017-May-24 05:29N 51°27' W 003°09'0 0.5
2017-May-24 04:56N 51°27' W 003°10'2 3.6
2017-May-24 04:19N 51°25' W 003°09'1412.5
2017-May-24 03:13N 51°20' W 003°30'816.2
2017-May-24 02:45N 51°19' W 003°42'2116.1
2017-May-24 01:26N 51°19' W 004°16'815.0
2017-May-24 00:55N 51°19' W 004°28'615.3
2017-May-24 00:30N 51°19' W 004°38'815.1
2017-May-24 00:00N 51°19' W 004°50'714.7
2017-May-23 23:30N 51°19' W 005°02'714.4
2017-May-23 23:00N 51°19' W 005°13'714.2
2017-May-23 22:30N 51°19' W 005°25'714.1
2017-May-23 22:00N 51°19' W 005°36'17113.2
2017-May-23 09:02N 54°09' W 005°12'115.3
2017-May-23 09:00N 54°10' W 005°12'715.2
2017-May-23 08:30N 54°17' W 005°11'715.1
2017-May-23 08:01N 54°25' W 005°13'815.9
2017-May-23 07:30N 54°32' W 005°19'816.3
2017-May-23 07:01N 54°39' W 005°26'918.6
2017-May-23 06:30N 54°48' W 005°33'918.5
2017-May-23 06:00N 54°56' W 005°40'1918.5
2017-May-23 04:59N 55°13' W 005°54'919.3
2017-May-23 04:30N 55°20' W 006°05'917.6
2017-May-23 04:00N 55°24' W 006°19'917.4
2017-May-23 03:30N 55°31' W 006°29'816.8
2017-May-23 03:00N 55°37' W 006°38'816.4
2017-May-23 02:30N 55°44' W 006°47'815.9
2017-May-23 02:00N 55°50' W 006°56'16614.2
2017-May-22 14:21N 58°28' W 005°25'3715.4
2017-May-22 11:58N 58°42' W 004°20'816.9
2017-May-22 11:30N 58°42' W 004°04'917.1
2017-May-22 11:00N 58°42' W 003°48'918.0
2017-May-22 10:31N 58°42' W 003°31'918.9
2017-May-22 10:01N 58°43' W 003°13'1020.2
2017-May-22 09:31N 58°43' W 002°53'23416.7
2017-May-21 19:33N 59°03' E 004°37'116.8
2017-May-21 19:30N 59°03' E 004°39'816.1
2017-May-21 19:00N 59°03' E 004°55'815.7
2017-May-21 18:31N 59°04' E 005°10'815.8
2017-May-21 18:01N 59°07' E 005°24'611.5
2017-May-21 17:30N 59°04' E 005°34'713.3
2017-May-21 17:00N 58°59' E 005°42'1 1.6
2017-May-21 16:28N 58°59' E 005°43'0 0.0
2017-May-21 15:58N 58°59' E 005°43'0 0.0
2017-May-21 15:28N 58°59' E 005°43'0 0.0
2017-May-21 14:58N 58°59' E 005°43'0 0.0
2017-May-21 13:58N 58°59' E 005°43'0 0.0
2017-May-21 13:28N 58°59' E 005°43'0 0.0
2017-May-21 12:58N 58°59' E 005°43'0 0.0
2017-May-21 12:28N 58°59' E 005°43'0 0.0
2017-May-21 11:58N 58°59' E 005°43'0 0.0
2017-May-21 11:28N 58°59' E 005°43'0 0.0
2017-May-21 10:58N 58°59' E 005°43'0 0.0
2017-May-21 10:28N 58°59' E 005°43'0 0.0
2017-May-21 09:58N 58°59' E 005°43'0 0.0
2017-May-21 09:28N 58°59' E 005°43'0 0.0
2017-May-21 08:58N 58°59' E 005°43'0 0.0
2017-May-21 08:28N 58°59' E 005°43'0 0.0
2017-May-21 08:00N 58°59' E 005°43'1 2.3
2017-May-21 07:30N 58°60' E 005°42'612.7
2017-May-21 07:00N 59°04' E 005°33'611.8
2017-May-21 06:30N 59°06' E 005°23'713.6
2017-May-21 06:00N 59°07' E 005°10'713.6
2017-May-21 05:31N 59°13' E 005°02'714.4
2017-May-21 05:00N 59°20' E 004°58'714.3
2017-May-21 04:30N 59°27' E 004°55'714.2
2017-May-21 04:00N 59°34' E 004°52'714.1
2017-May-21 03:30N 59°41' E 004°50'714.6
2017-May-21 03:00N 59°48' E 004°48'714.2
2017-May-21 02:29N 59°55' E 004°45'714.4
2017-May-21 02:00N 60°02' E 004°43'714.8
2017-May-21 01:30N 60°09' E 004°40'815.7
2017-May-21 01:00N 60°17' E 004°37'815.6
2017-May-21 00:30N 60°25' E 004°34'815.4
2017-May-21 00:00N 60°32' E 004°29'815.6
2017-May-20 23:29N 60°40' E 004°27'714.9
2017-May-20 23:00N 60°47' E 004°29'612.6
2017-May-20 22:30N 60°51' E 004°38'611.0
2017-May-20 21:59N 60°57' E 004°41'714.4
2017-May-20 21:30N 61°01' E 004°52'714.7
2017-May-20 21:00N 61°05' E 005°05'714.8
2017-May-20 20:30N 61°04' E 005°20'714.6
2017-May-20 20:00N 61°06' E 005°35'815.5
2017-May-20 19:30N 61°08' E 005°51'815.2
2017-May-20 19:00N 61°08' E 006°06'814.8
2017-May-20 18:29N 61°06' E 006°22'713.9
2017-May-20 18:00N 61°09' E 006°34'713.3
2017-May-20 17:30N 61°10' E 006°48'815.0
2017-May-20 17:00N 61°05' E 006°60'815.1
2017-May-20 16:30N 60°58' E 007°06'611.6
2017-May-20 16:00N 60°52' E 007°08'0 0.5
2017-May-20 15:28N 60°52' E 007°07'0 0.0
2017-May-20 14:58N 60°52' E 007°07'0 0.0
2017-May-20 14:28N 60°52' E 007°07'0 0.0
2017-May-20 13:28N 60°52' E 007°07'0 0.0
2017-May-20 12:58N 60°52' E 007°07'0 0.0
2017-May-20 12:28N 60°52' E 007°07'0 0.0
2017-May-20 11:58N 60°52' E 007°07'0 0.0
2017-May-20 11:28N 60°52' E 007°07'0 0.0
2017-May-20 10:58N 60°52' E 007°07'0 0.0
2017-May-20 10:28N 60°52' E 007°07'0 0.0
2017-May-20 09:58N 60°52' E 007°07'0 0.0
2017-May-20 09:28N 60°52' E 007°07'0 0.0
2017-May-20 08:58N 60°52' E 007°07'0 0.0
2017-May-20 08:28N 60°52' E 007°07'0 0.0
2017-May-20 07:58N 60°52' E 007°07'0 0.0
2017-May-20 07:28N 60°52' E 007°07'0 0.0
2017-May-20 06:58N 60°52' E 007°07'0 0.0
2017-May-20 06:30N 60°52' E 007°07'1 1.8
2017-May-20 06:00N 60°53' E 007°08'4 8.0
2017-May-20 05:30N 60°57' E 007°10'611.0
2017-May-20 05:00N 61°01' E 007°03'612.6
2017-May-20 04:30N 61°06' E 006°57'713.8
2017-May-20 04:00N 61°10' E 006°44'611.6
2017-May-20 03:31N 61°08' E 006°33'713.2
2017-May-20 03:00N 61°06' E 006°20'714.1
2017-May-20 02:29N 61°08' E 006°05'713.7
2017-May-20 02:00N 61°08' E 005°52'713.8
2017-May-20 01:30N 61°07' E 005°38'714.0
2017-May-20 01:00N 61°04' E 005°24'714.0
2017-May-20 00:30N 61°07' E 005°11'713.9
2017-May-20 00:00N 61°12' E 005°01'713.6
2017-May-19 23:30N 61°15' E 004°48'714.4
2017-May-19 23:01N 61°15' E 004°33'714.6
2017-May-19 22:31N 61°21' E 004°27'815.0
2017-May-19 21:59N 61°29' E 004°24'816.2
2017-May-19 21:30N 61°37' E 004°23'816.1
2017-May-19 21:01N 61°44' E 004°28'816.4
2017-May-19 20:30N 61°52' E 004°36'816.5
2017-May-19 20:00N 61°59' E 004°43'816.5
2017-May-19 19:30N 62°07' E 004°51'816.6
2017-May-19 19:00N 62°14' E 005°00'816.6
2017-May-19 18:30N 62°20' E 005°11'816.3
2017-May-19 18:00N 62°25' E 005°25'816.1
2017-May-19 17:30N 62°27' E 005°42'816.7
2017-May-19 17:01N 62°26' E 006°00'815.4
2017-May-19 16:30N 62°23' E 006°16'816.8
2017-May-19 16:00N 62°26' E 006°33'815.8
2017-May-19 15:30N 62°26' E 006°51'714.8
2017-May-19 15:00N 62°20' E 006°57'1414.1
2017-May-19 14:01N 62°06' E 007°00'5 9.7
2017-May-19 13:28N 62°06' E 007°11'0 0.0
2017-May-19 12:58N 62°06' E 007°11'0 0.1
2017-May-19 12:28N 62°06' E 007°11'0 0.0
2017-May-19 11:58N 62°06' E 007°11'0 0.0
2017-May-19 11:28N 62°06' E 007°11'0 0.0
2017-May-19 10:58N 62°06' E 007°11'0 0.0
2017-May-19 10:28N 62°06' E 007°11'0 0.0
2017-May-19 09:58N 62°06' E 007°11'0 0.0
2017-May-19 09:28N 62°06' E 007°11'0 0.0
2017-May-19 08:58N 62°06' E 007°11'0 0.0
2017-May-19 08:28N 62°06' E 007°11'0 0.0
2017-May-19 07:58N 62°06' E 007°11'0 0.0
2017-May-19 07:28N 62°06' E 007°11'0 0.0
2017-May-19 06:58N 62°06' E 007°11'0 0.0
2017-May-19 06:28N 62°06' E 007°11'0 0.0
2017-May-19 05:58N 62°06' E 007°11'0 0.0
2017-May-19 05:28N 62°06' E 007°11'0 0.0
2017-May-19 04:58N 62°06' E 007°11'0 0.2
2017-May-19 04:30N 62°06' E 007°11'3 5.7
2017-May-19 04:00N 62°06' E 007°05'4 8.7
2017-May-19 03:30N 62°09' E 006°58'713.8
2017-May-19 03:00N 62°16' E 007°01'714.1
2017-May-19 02:30N 62°22' E 006°56'612.6
2017-May-19 02:00N 62°27' E 006°47'714.0
2017-May-19 01:30N 62°26' E 006°32'714.4
2017-May-19 01:00N 62°24' E 006°17'714.0
2017-May-19 00:30N 62°25' E 006°02'714.1
2017-May-19 00:00N 62°27' E 005°48'815.4
2017-May-18 23:30N 62°27' E 005°31'815.1
2017-May-18 23:00N 62°22' E 005°18'815.2
2017-May-18 22:30N 62°17' E 005°06'815.2
2017-May-18 22:00N 62°11' E 004°57'715.0
2017-May-18 21:31N 62°04' E 004°51'714.1
2017-May-18 21:01N 61°58' E 004°57'714.3
2017-May-18 20:30N 61°54' E 005°10'714.8
2017-May-18 20:00N 61°55' E 005°25'11 0.6
2017-May-18 01:44N 61°51' E 005°48'312.9
2017-May-18 01:29N 61°53' E 005°43'613.0
2017-May-18 01:00N 61°55' E 005°30'612.8
2017-May-18 00:30N 61°54' E 005°16'612.2
2017-May-18 00:00N 61°55' E 005°04'612.2
2017-May-17 23:30N 61°58' E 004°52'714.1
2017-May-17 22:59N 61°54' E 004°40'815.9
2017-May-17 22:30N 61°47' E 004°32'815.9
2017-May-17 22:00N 61°40' E 004°24'815.9
2017-May-17 21:30N 61°32' E 004°23'815.8
2017-May-17 21:00N 61°25' E 004°23'816.1
2017-May-17 20:30N 61°17' E 004°23'816.1
2017-May-17 20:00N 61°08' E 004°23'816.2
2017-May-17 19:30N 61°00' E 004°23'1216.5
2017-May-17 18:47N 60°49' E 004°28'414.6
2017-May-17 18:29N 60°46' E 004°35'715.2
2017-May-17 18:00N 60°42' E 004°47'815.1
2017-May-17 17:30N 60°35' E 004°55'815.2
2017-May-17 16:59N 60°28' E 005°01'714.1
2017-May-17 16:30N 60°23' E 005°11'4 8.2
2017-May-17 16:00N 60°24' E 005°19'0 0.2
2017-May-17 15:29N 60°24' E 005°19'0 0.0
2017-May-17 14:59N 60°24' E 005°19'0 0.0
2017-May-17 13:59N 60°24' E 005°19'0 0.0
2017-May-17 13:26N 60°24' E 005°19'0 0.0
2017-May-17 12:59N 60°24' E 005°19'0 0.0
2017-May-17 12:29N 60°24' E 005°19'0 0.0
2017-May-17 11:59N 60°24' E 005°19'0 0.0
2017-May-17 11:29N 60°24' E 005°19'0 0.0
2017-May-17 10:59N 60°24' E 005°19'0 0.0
2017-May-17 10:29N 60°24' E 005°19'0 0.0
2017-May-17 09:59N 60°24' E 005°19'0 0.0
2017-May-17 09:29N 60°24' E 005°19'0 0.0
2017-May-17 08:59N 60°24' E 005°19'0 0.0
2017-May-17 07:47N 60°24' E 005°19'0 0.0
2017-May-17 07:29N 60°24' E 005°19'0 0.0
2017-May-17 07:00N 60°24' E 005°19'2 4.4
2017-May-17 06:30N 60°24' E 005°15'4 8.6
2017-May-17 06:00N 60°20' E 005°12'611.7
2017-May-17 05:30N 60°14' E 005°09'611.3
2017-May-17 05:00N 60°09' E 005°05'4 6.9
2017-May-17 04:30N 60°08' E 004°58'612.7
2017-May-17 04:00N 60°08' E 004°45'713.4
2017-May-17 03:29N 60°06' E 004°32'24214.2
2017-May-16 10:29N 59°17' W 003°18'817.2
2017-May-16 10:00N 59°13' W 003°32'917.5
2017-May-16 09:31N 59°08' W 003°46'916.9
2017-May-16 09:00N 59°03' W 003°59'917.0
2017-May-16 08:30N 58°58' W 004°13'917.1
2017-May-16 08:00N 58°53' W 004°26'3416.3
2017-May-16 05:54N 58°32' W 005°17'16815.3
2017-May-15 18:56N 55°53' W 006°58'817.5
2017-May-15 18:29N 55°46' W 006°49'918.5
2017-May-15 18:00N 55°39' W 006°40'1019.1
2017-May-15 17:30N 55°33' W 006°28'1019.0
2017-May-15 17:00N 55°27' W 006°14'918.8
2017-May-15 16:30N 55°22' W 006°01'2319.5
2017-May-15 15:19N 55°01' W 005°41'517.8
2017-May-15 15:01N 54°56' W 005°37'1717.2
2017-May-15 14:01N 54°41' W 005°25'816.8
2017-May-15 13:31N 54°33' W 005°20'816.3
2017-May-15 13:01N 54°25' W 005°15'816.3
2017-May-15 12:31N 54°17' W 005°14'816.4
2017-May-15 12:01N 54°09' W 005°14'917.0
2017-May-15 11:30N 54°00' W 005°16'14516.0
2017-May-15 02:28N 51°36' W 005°41'716.1
2017-May-15 02:00N 51°35' W 005°29'  
Track history (hours):
 
Tides and Currents Weather Stations Pressure Air Temp Water Temp Dewpoint Dewpoint Depression Visibility Wind Speed Wind Dir Waves Ship Positions

Marco Polo

Operator: Orient Lines

Last reported at 2017-May-25 03:00 UTC. Time now 2017-May-25 02:58 UTC.
Position N 50°07' W 006°01'.

Type: Ship. MMSI: 308691456.

Date/timePositionNaut miles runAvg speedWind from/ knotsBaromVisibWave heightAir tempDewpointWater temp
2017-May-25 03:00N 50°07' W 006°01'1312.5
2017-May-25 01:56N 50°20' W 005°60'512.3
2017-May-25 01:30N 50°24' W 005°55'713.1
2017-May-25 01:00N 50°29' W 005°48'713.5
2017-May-25 00:30N 50°34' W 005°40'713.9
2017-May-25 00:00N 50°37' W 005°31'714.4
2017-May-24 23:30N 50°42' W 005°22'714.7
2017-May-24 23:00N 50°47' W 005°13'715.0
2017-May-24 22:30N 50°51' W 005°04'815.2
2017-May-24 22:00N 50°56' W 004°55'815.4
2017-May-24 21:30N 51°01' W 004°46'816.2
2017-May-24 21:00N 51°07' W 004°36'816.4
2017-May-24 20:30N 51°12' W 004°26'816.1
2017-May-24 20:00N 51°16' W 004°15'1017.6
2017-May-24 19:26N 51°18' W 003°59'816.8
2017-May-24 18:57N 51°19' W 003°46'716.0
2017-May-24 18:30N 51°20' W 003°35'814.8
2017-May-24 17:56N 51°21' W 003°21'812.2
2017-May-24 17:16N 51°24' W 003°09'311.4
2017-May-24 17:00N 51°27' W 003°10'1 0.3
2017-May-24 14:45N 51°27' W 003°09'0 0.0
2017-May-24 14:27N 51°27' W 003°09'0 0.0
2017-May-24 13:27N 51°27' W 003°09'0 0.0
2017-May-24 12:57N 51°27' W 003°09'0 0.0
2017-May-24 12:27N 51°27' W 003°09'0 0.0
2017-May-24 11:57N 51°27' W 003°09'0 0.0
2017-May-24 11:27N 51°27' W 003°09'0 0.0
2017-May-24 10:57N 51°27' W 003°09'0 0.0
2017-May-24 10:27N 51°27' W 003°09'0 0.0
2017-May-24 09:57N 51°27' W 003°09'0 0.0
2017-May-24 05:29N 51°27' W 003°09'0 0.5
2017-May-24 04:56N 51°27' W 003°10'2 3.6
2017-May-24 04:19N 51°25' W 003°09'1412.5
2017-May-24 03:13N 51°20' W 003°30'816.2
2017-May-24 02:45N 51°19' W 003°42'2116.1
2017-May-24 01:26N 51°19' W 004°16'815.0
2017-May-24 00:55N 51°19' W 004°28'615.3
2017-May-24 00:30N 51°19' W 004°38'815.1
2017-May-24 00:00N 51°19' W 004°50'714.7
2017-May-23 23:30N 51°19' W 005°02'714.4
2017-May-23 23:00N 51°19' W 005°13'714.2
2017-May-23 22:30N 51°19' W 005°25'714.1
2017-May-23 22:00N 51°19' W 005°36'17113.2
2017-May-23 09:02N 54°09' W 005°12'115.3
2017-May-23 09:00N 54°10' W 005°12'715.2
2017-May-23 08:30N 54°17' W 005°11'715.1
2017-May-23 08:01N 54°25' W 005°13'815.9
2017-May-23 07:30N 54°32' W 005°19'816.3
2017-May-23 07:01N 54°39' W 005°26'918.6
2017-May-23 06:30N 54°48' W 005°33'918.5
2017-May-23 06:00N 54°56' W 005°40'1918.5
2017-May-23 04:59N 55°13' W 005°54'919.3
2017-May-23 04:30N 55°20' W 006°05'917.6
2017-May-23 04:00N 55°24' W 006°19'917.4
2017-May-23 03:30N 55°31' W 006°29'816.8
2017-May-23 03:00N 55°37' W 006°38'816.4
2017-May-23 02:30N 55°44' W 006°47'815.9
2017-May-23 02:00N 55°50' W 006°56'16614.2
2017-May-22 14:21N 58°28' W 005°25'3715.4
2017-May-22 11:58N 58°42' W 004°20'816.9
2017-May-22 11:30N 58°42' W 004°04'917.1
2017-May-22 11:00N 58°42' W 003°48'918.0
2017-May-22 10:31N 58°42' W 003°31'918.9
2017-May-22 10:01N 58°43' W 003°13'1020.2
2017-May-22 09:31N 58°43' W 002°53'23416.7
2017-May-21 19:33N 59°03' E 004°37'116.8
2017-May-21 19:30N 59°03' E 004°39'816.1
2017-May-21 19:00N 59°03' E 004°55'815.7
2017-May-21 18:31N 59°04' E 005°10'815.8
2017-May-21 18:01N 59°07' E 005°24'611.5
2017-May-21 17:30N 59°04' E 005°34'713.3
2017-May-21 17:00N 58°59' E 005°42'1 1.6
2017-May-21 16:28N 58°59' E 005°43'0 0.0
2017-May-21 15:58N 58°59' E 005°43'0 0.0
2017-May-21 15:28N 58°59' E 005°43'0 0.0
2017-May-21 14:58N 58°59' E 005°43'0 0.0
2017-May-21 13:58N 58°59' E 005°43'0 0.0
2017-May-21 13:28N 58°59' E 005°43'0 0.0
2017-May-21 12:58N 58°59' E 005°43'0 0.0
2017-May-21 12:28N 58°59' E 005°43'0 0.0
2017-May-21 11:58N 58°59' E 005°43'0 0.0
2017-May-21 11:28N 58°59' E 005°43'0 0.0
2017-May-21 10:58N 58°59' E 005°43'0 0.0
2017-May-21 10:28N 58°59' E 005°43'0 0.0
2017-May-21 09:58N 58°59' E 005°43'0 0.0
2017-May-21 09:28N 58°59' E 005°43'0 0.0
2017-May-21 08:58N 58°59' E 005°43'0 0.0
2017-May-21 08:28N 58°59' E 005°43'0 0.0
2017-May-21 08:00N 58°59' E 005°43'1 2.3
2017-May-21 07:30N 58°60' E 005°42'612.7
2017-May-21 07:00N 59°04' E 005°33'611.8
2017-May-21 06:30N 59°06' E 005°23'713.6
2017-May-21 06:00N 59°07' E 005°10'713.6
2017-May-21 05:31N 59°13' E 005°02'714.4
2017-May-21 05:00N 59°20' E 004°58'714.3
2017-May-21 04:30N 59°27' E 004°55'714.2
2017-May-21 04:00N 59°34' E 004°52'714.1
2017-May-21 03:30N 59°41' E 004°50'714.6
2017-May-21 03:00N 59°48' E 004°48'714.2
2017-May-21 02:29N 59°55' E 004°45'714.4
2017-May-21 02:00N 60°02' E 004°43'714.8
2017-May-21 01:30N 60°09' E 004°40'815.7
2017-May-21 01:00N 60°17' E 004°37'815.6
2017-May-21 00:30N 60°25' E 004°34'815.4
2017-May-21 00:00N 60°32' E 004°29'815.6
2017-May-20 23:29N 60°40' E 004°27'714.9
2017-May-20 23:00N 60°47' E 004°29'612.6
2017-May-20 22:30N 60°51' E 004°38'611.0
2017-May-20 21:59N 60°57' E 004°41'714.4
2017-May-20 21:30N 61°01' E 004°52'714.7
2017-May-20 21:00N 61°05' E 005°05'714.8
2017-May-20 20:30N 61°04' E 005°20'714.6
2017-May-20 20:00N 61°06' E 005°35'815.5
2017-May-20 19:30N 61°08' E 005°51'815.2
2017-May-20 19:00N 61°08' E 006°06'814.8
2017-May-20 18:29N 61°06' E 006°22'713.9
2017-May-20 18:00N 61°09' E 006°34'713.3
2017-May-20 17:30N 61°10' E 006°48'815.0
2017-May-20 17:00N 61°05' E 006°60'815.1
2017-May-20 16:30N 60°58' E 007°06'611.6
2017-May-20 16:00N 60°52' E 007°08'0 0.5
2017-May-20 15:28N 60°52' E 007°07'0 0.0
2017-May-20 14:58N 60°52' E 007°07'0 0.0
2017-May-20 14:28N 60°52' E 007°07'0 0.0
2017-May-20 13:28N 60°52' E 007°07'0 0.0
2017-May-20 12:58N 60°52' E 007°07'0 0.0
2017-May-20 12:28N 60°52' E 007°07'0 0.0
2017-May-20 11:58N 60°52' E 007°07'0 0.0
2017-May-20 11:28N 60°52' E 007°07'0 0.0
2017-May-20 10:58N 60°52' E 007°07'0 0.0
2017-May-20 10:28N 60°52' E 007°07'0 0.0
2017-May-20 09:58N 60°52' E 007°07'0 0.0
2017-May-20 09:28N 60°52' E 007°07'0 0.0
2017-May-20 08:58N 60°52' E 007°07'0 0.0
2017-May-20 08:28N 60°52' E 007°07'0 0.0
2017-May-20 07:58N 60°52' E 007°07'0 0.0
2017-May-20 07:28N 60°52' E 007°07'0 0.0
2017-May-20 06:58N 60°52' E 007°07'0 0.0
2017-May-20 06:30N 60°52' E 007°07'1 1.8
2017-May-20 06:00N 60°53' E 007°08'4 8.0
2017-May-20 05:30N 60°57' E 007°10'611.0
2017-May-20 05:00N 61°01' E 007°03'612.6
2017-May-20 04:30N 61°06' E 006°57'713.8
2017-May-20 04:00N 61°10' E 006°44'611.6
2017-May-20 03:31N 61°08' E 006°33'713.2
2017-May-20 03:00N 61°06' E 006°20'714.1
2017-May-20 02:29N 61°08' E 006°05'713.7
2017-May-20 02:00N 61°08' E 005°52'713.8
2017-May-20 01:30N 61°07' E 005°38'714.0
2017-May-20 01:00N 61°04' E 005°24'714.0
2017-May-20 00:30N 61°07' E 005°11'713.9
2017-May-20 00:00N 61°12' E 005°01'713.6
2017-May-19 23:30N 61°15' E 004°48'714.4
2017-May-19 23:01N 61°15' E 004°33'714.6
2017-May-19 22:31N 61°21' E 004°27'815.0
2017-May-19 21:59N 61°29' E 004°24'816.2
2017-May-19 21:30N 61°37' E 004°23'816.1
2017-May-19 21:01N 61°44' E 004°28'816.4
2017-May-19 20:30N 61°52' E 004°36'816.5
2017-May-19 20:00N 61°59' E 004°43'816.5
2017-May-19 19:30N 62°07' E 004°51'816.6
2017-May-19 19:00N 62°14' E 005°00'816.6
2017-May-19 18:30N 62°20' E 005°11'816.3
2017-May-19 18:00N 62°25' E 005°25'816.1
2017-May-19 17:30N 62°27' E 005°42'816.7
2017-May-19 17:01N 62°26' E 006°00'815.4
2017-May-19 16:30N 62°23' E 006°16'816.8
2017-May-19 16:00N 62°26' E 006°33'815.8
2017-May-19 15:30N 62°26' E 006°51'714.8
2017-May-19 15:00N 62°20' E 006°57'1414.1
2017-May-19 14:01N 62°06' E 007°00'5 9.7
2017-May-19 13:28N 62°06' E 007°11'0 0.0
2017-May-19 12:58N 62°06' E 007°11'0 0.1
2017-May-19 12:28N 62°06' E 007°11'0 0.0
2017-May-19 11:58N 62°06' E 007°11'0 0.0
2017-May-19 11:28N 62°06' E 007°11'0 0.0
2017-May-19 10:58N 62°06' E 007°11'0 0.0
2017-May-19 10:28N 62°06' E 007°11'0 0.0
2017-May-19 09:58N 62°06' E 007°11'0 0.0
2017-May-19 09:28N 62°06' E 007°11'0 0.0
2017-May-19 08:58N 62°06' E 007°11'0 0.0
2017-May-19 08:28N 62°06' E 007°11'0 0.0
2017-May-19 07:58N 62°06' E 007°11'0 0.0
2017-May-19 07:28N 62°06' E 007°11'0 0.0
2017-May-19 06:58N 62°06' E 007°11'0 0.0
2017-May-19 06:28N 62°06' E 007°11'0 0.0
2017-May-19 05:58N 62°06' E 007°11'0 0.0
2017-May-19 05:28N 62°06' E 007°11'0 0.0
2017-May-19 04:58N 62°06' E 007°11'0 0.2
2017-May-19 04:30N 62°06' E 007°11'3 5.7
2017-May-19 04:00N 62°06' E 007°05'4 8.7
2017-May-19 03:30N 62°09' E 006°58'713.8
2017-May-19 03:00N 62°16' E 007°01'714.1
2017-May-19 02:30N 62°22' E 006°56'612.6
2017-May-19 02:00N 62°27' E 006°47'714.0
2017-May-19 01:30N 62°26' E 006°32'714.4
2017-May-19 01:00N 62°24' E 006°17'714.0
2017-May-19 00:30N 62°25' E 006°02'714.1
2017-May-19 00:00N 62°27' E 005°48'815.4
2017-May-18 23:30N 62°27' E 005°31'815.1
2017-May-18 23:00N 62°22' E 005°18'815.2
2017-May-18 22:30N 62°17' E 005°06'815.2
2017-May-18 22:00N 62°11' E 004°57'715.0
2017-May-18 21:31N 62°04' E 004°51'714.1
2017-May-18 21:01N 61°58' E 004°57'714.3
2017-May-18 20:30N 61°54' E 005°10'714.8
2017-May-18 20:00N 61°55' E 005°25'11 0.6
2017-May-18 01:44N 61°51' E 005°48'312.9
2017-May-18 01:29N 61°53' E 005°43'613.0
2017-May-18 01:00N 61°55' E 005°30'612.8
2017-May-18 00:30N 61°54' E 005°16'612.2
2017-May-18 00:00N 61°55' E 005°04'612.2
2017-May-17 23:30N 61°58' E 004°52'714.1
2017-May-17 22:59N 61°54' E 004°40'815.9
2017-May-17 22:30N 61°47' E 004°32'815.9
2017-May-17 22:00N 61°40' E 004°24'815.9
2017-May-17 21:30N 61°32' E 004°23'815.8
2017-May-17 21:00N 61°25' E 004°23'816.1
2017-May-17 20:30N 61°17' E 004°23'816.1
2017-May-17 20:00N 61°08' E 004°23'816.2
2017-May-17 19:30N 61°00' E 004°23'1216.5
2017-May-17 18:47N 60°49' E 004°28'414.6
2017-May-17 18:29N 60°46' E 004°35'715.2
2017-May-17 18:00N 60°42' E 004°47'815.1
2017-May-17 17:30N 60°35' E 004°55'815.2
2017-May-17 16:59N 60°28' E 005°01'714.1
2017-May-17 16:30N 60°23' E 005°11'4 8.2
2017-May-17 16:00N 60°24' E 005°19'0 0.2
2017-May-17 15:29N 60°24' E 005°19'0 0.0
2017-May-17 14:59N 60°24' E 005°19'0 0.0
2017-May-17 13:59N 60°24' E 005°19'0 0.0
2017-May-17 13:26N 60°24' E 005°19'0 0.0
2017-May-17 12:59N 60°24' E 005°19'0 0.0
2017-May-17 12:29N 60°24' E 005°19'0 0.0
2017-May-17 11:59N 60°24' E 005°19'0 0.0
2017-May-17 11:29N 60°24' E 005°19'0 0.0
2017-May-17 10:59N 60°24' E 005°19'0 0.0
2017-May-17 10:29N 60°24' E 005°19'0 0.0
2017-May-17 09:59N 60°24' E 005°19'0 0.0
2017-May-17 09:29N 60°24' E 005°19'0 0.0
2017-May-17 08:59N 60°24' E 005°19'0 0.0
2017-May-17 07:47N 60°24' E 005°19'0 0.0
2017-May-17 07:29N 60°24' E 005°19'0 0.0
2017-May-17 07:00N 60°24' E 005°19'2 4.4
2017-May-17 06:30N 60°24' E 005°15'4 8.6
2017-May-17 06:00N 60°20' E 005°12'611.7
2017-May-17 05:30N 60°14' E 005°09'611.3
2017-May-17 05:00N 60°09' E 005°05'4 6.9
2017-May-17 04:30N 60°08' E 004°58'612.7
2017-May-17 04:00N 60°08' E 004°45'713.4
2017-May-17 03:29N 60°06' E 004°32'24214.2
2017-May-16 10:29N 59°17' W 003°18'817.2
2017-May-16 10:00N 59°13' W 003°32'917.5
2017-May-16 09:31N 59°08' W 003°46'916.9
2017-May-16 09:00N 59°03' W 003°59'917.0
2017-May-16 08:30N 58°58' W 004°13'917.1
2017-May-16 08:00N 58°53' W 004°26'3416.3
2017-May-16 05:54N 58°32' W 005°17'16815.3
2017-May-15 18:56N 55°53' W 006°58'817.5
2017-May-15 18:29N 55°46' W 006°49'918.5
2017-May-15 18:00N 55°39' W 006°40'1019.1
2017-May-15 17:30N 55°33' W 006°28'1019.0
2017-May-15 17:00N 55°27' W 006°14'918.8
2017-May-15 16:30N 55°22' W 006°01'2319.5
2017-May-15 15:19N 55°01' W 005°41'517.8
2017-May-15 15:01N 54°56' W 005°37'1717.2
2017-May-15 14:01N 54°41' W 005°25'816.8
2017-May-15 13:31N 54°33' W 005°20'816.3
2017-May-15 13:01N 54°25' W 005°15'816.3
2017-May-15 12:31N 54°17' W 005°14'816.4
2017-May-15 12:01N 54°09' W 005°14'917.0
2017-May-15 11:30N 54°00' W 005°16'14516.0
2017-May-15 02:28N 51°36' W 005°41'716.1
2017-May-15 02:00N 51°35' W 005°29'  

Dump ship's entire track history